createdAt,value
2018-12-29T00:01:28.386Z,84.31
2018-12-29T00:03:59.122Z,84.44
2018-12-29T00:06:29.872Z,84.51
2018-12-29T00:09:00.653Z,84.49
2018-12-29T00:11:31.429Z,84.55
2018-12-29T00:14:02.263Z,84.74
2018-12-29T00:16:33.139Z,84.73
2018-12-29T00:19:03.973Z,84.85
2018-12-29T00:21:34.753Z,84.90
2018-12-29T00:24:05.526Z,85.02
2018-12-29T00:26:36.363Z,84.95
2018-12-29T00:29:07.165Z,84.97
2018-12-29T00:31:37.934Z,85.03
2018-12-29T00:34:08.760Z,84.99
2018-12-29T00:36:39.566Z,84.92
2018-12-29T00:39:10.317Z,85.04
2018-12-29T00:41:41.079Z,85.16
2018-12-29T00:44:11.911Z,85.23
2018-12-29T00:46:42.650Z,85.21
2018-12-29T00:49:13.372Z,84.95
2018-12-29T00:51:44.151Z,85.02
2018-12-29T00:54:15.298Z,85.08
2018-12-29T00:56:46.116Z,85.11
2018-12-29T00:59:17.040Z,85.22
2018-12-29T01:01:47.969Z,85.31
2018-12-29T01:04:18.760Z,85.29
2018-12-29T01:06:49.523Z,85.34
2018-12-29T01:09:20.245Z,85.42
2018-12-29T01:11:50.988Z,85.35
2018-12-29T01:14:21.714Z,85.42
2018-12-29T01:16:52.617Z,85.33
2018-12-29T01:19:23.365Z,85.40
2018-12-29T01:21:54.144Z,85.42
2018-12-29T01:24:24.871Z,85.34
2018-12-29T01:26:55.705Z,85.35
2018-12-29T01:29:26.502Z,85.38
2018-12-29T01:31:57.251Z,85.39
2018-12-29T01:34:28.088Z,85.44
2018-12-29T01:36:58.873Z,85.46
2018-12-29T01:39:29.629Z,85.43
2018-12-29T01:42:00.381Z,85.39
2018-12-29T01:44:31.266Z,85.37
2018-12-29T01:47:03.396Z,85.21
2018-12-29T01:49:34.133Z,85.15
2018-12-29T01:52:05.011Z,85.08
2018-12-29T01:54:35.728Z,85.05
2018-12-29T01:57:06.582Z,84.89
2018-12-29T01:59:37.358Z,84.79
2018-12-29T02:02:08.099Z,84.90
2018-12-29T02:04:38.820Z,84.70
2018-12-29T02:07:09.595Z,84.77
2018-12-29T02:09:40.406Z,84.98
2018-12-29T02:12:11.139Z,84.99
2018-12-29T02:14:41.887Z,85.04
2018-12-29T02:17:15.604Z,85.12
2018-12-29T02:19:46.395Z,85.02
2018-12-29T02:22:17.176Z,85.02
2018-12-29T02:24:47.918Z,84.84
2018-12-29T02:27:18.662Z,84.82
2018-12-29T02:29:49.527Z,85.01
2018-12-29T02:32:20.298Z,85.15
2018-12-29T02:34:51.016Z,85.26
2018-12-29T02:37:21.785Z,85.11
2018-12-29T02:39:52.550Z,85.02
2018-12-29T02:42:23.309Z,85.09
2018-12-29T02:44:54.061Z,85.25
2018-12-29T02:47:24.813Z,85.32
2018-12-29T02:49:55.555Z,85.43
2018-12-29T02:52:26.349Z,85.58
2018-12-29T02:54:57.059Z,85.69
2018-12-29T02:57:27.916Z,85.81
2018-12-29T02:59:58.621Z,85.87
2018-12-29T03:02:32.407Z,85.95
2018-12-29T03:05:03.146Z,85.87
2018-12-29T03:07:33.904Z,85.86
2018-12-29T03:10:04.827Z,86.12
2018-12-29T03:12:35.558Z,86.20
2018-12-29T03:15:06.457Z,86.33
2018-12-29T03:17:37.226Z,86.51
2018-12-29T03:20:07.967Z,86.62
2018-12-29T03:22:38.720Z,86.68
2018-12-29T03:25:09.455Z,86.74
2018-12-29T03:27:40.346Z,86.89
2018-12-29T03:30:11.082Z,86.99
2018-12-29T03:32:41.821Z,87.04
2018-12-29T03:35:12.562Z,87.05
2018-12-29T03:37:43.336Z,87.06
2018-12-29T03:40:14.205Z,87.22
2018-12-29T03:42:45.047Z,87.10
2018-12-29T03:45:15.881Z,87.29
2018-12-29T03:47:46.635Z,87.46
2018-12-29T03:50:17.392Z,87.60
2018-12-29T03:52:48.426Z,87.70
2018-12-29T03:55:19.133Z,87.65
2018-12-29T03:57:49.892Z,87.70
2018-12-29T04:00:20.613Z,87.93
2018-12-29T04:02:51.399Z,87.90
2018-12-29T04:05:22.182Z,88.04
2018-12-29T04:07:52.935Z,88.20
2018-12-29T04:10:23.630Z,88.40
2018-12-29T04:12:58.807Z,88.52
2018-12-29T04:15:29.670Z,88.68
2018-12-29T04:18:00.454Z,88.66
2018-12-29T04:20:31.192Z,88.66
2018-12-29T04:23:01.937Z,88.79
2018-12-29T04:25:32.669Z,88.86
2018-12-29T04:28:03.563Z,88.89
2018-12-29T04:30:34.330Z,88.82
2018-12-29T04:33:05.112Z,88.82
2018-12-29T04:35:35.845Z,88.79
2018-12-29T04:38:06.680Z,88.91
2018-12-29T04:40:37.415Z,88.98
2018-12-29T04:43:10.943Z,89.05
2018-12-29T04:45:41.792Z,89.10
2018-12-29T04:48:12.650Z,89.23
2018-12-29T04:50:43.378Z,89.27
2018-12-29T04:53:14.160Z,89.22
2018-12-29T04:55:44.892Z,89.18
2018-12-29T04:58:15.746Z,89.27
2018-12-29T05:00:46.471Z,89.34
2018-12-29T05:03:17.248Z,89.38
2018-12-29T05:05:47.969Z,89.40
2018-12-29T05:08:18.825Z,89.37
2018-12-29T05:10:49.949Z,89.39
2018-12-29T05:13:20.808Z,89.46
2018-12-29T05:15:51.575Z,89.49
2018-12-29T05:18:22.305Z,89.47
2018-12-29T05:20:53.098Z,89.53
2018-12-29T05:23:23.864Z,89.57
2018-12-29T05:25:54.615Z,89.57
2018-12-29T05:28:25.378Z,89.53
2018-12-29T05:30:56.123Z,89.53
2018-12-29T05:33:26.961Z,89.55
2018-12-29T05:35:57.715Z,89.58
2018-12-29T05:38:28.419Z,89.66
2018-12-29T05:40:59.175Z,89.64
2018-12-29T05:43:30.000Z,89.56
2018-12-29T05:46:00.736Z,89.55
2018-12-29T05:48:31.441Z,89.54
2018-12-29T05:51:02.195Z,89.58
2018-12-29T05:53:33.022Z,89.68
2018-12-29T05:56:03.768Z,89.79
2018-12-29T05:58:34.494Z,89.70
2018-12-29T06:01:05.303Z,89.76
2018-12-29T06:03:36.128Z,89.84
2018-12-29T06:06:06.941Z,89.88
2018-12-29T06:08:37.665Z,89.94
2018-12-29T06:11:08.367Z,89.92
2018-12-29T06:13:39.439Z,89.90
2018-12-29T06:16:10.304Z,89.94
2018-12-29T06:18:41.027Z,89.95
2018-12-29T06:21:11.832Z,89.98
2018-12-29T06:23:42.582Z,90.01
2018-12-29T06:26:13.343Z,90.03
2018-12-29T06:28:44.251Z,90.04
2018-12-29T06:31:14.990Z,89.99
2018-12-29T06:33:45.831Z,90.02
2018-12-29T06:36:16.613Z,89.89
2018-12-29T06:38:47.415Z,89.95
2018-12-29T06:41:18.111Z,90.17
2018-12-29T06:43:48.857Z,90.19
2018-12-29T06:46:19.566Z,90.22
2018-12-29T06:48:50.385Z,90.28
2018-12-29T06:51:21.137Z,90.19
2018-12-29T06:53:51.901Z,90.14
2018-12-29T06:56:22.625Z,90.04
2018-12-29T06:58:53.553Z,89.94
2018-12-29T07:01:24.278Z,90.04
2018-12-29T07:03:55.035Z,90.16
2018-12-29T07:06:25.776Z,90.15
2018-12-29T07:08:56.569Z,90.19
2018-12-29T07:11:27.316Z,90.25
2018-12-29T07:13:58.081Z,90.25
2018-12-29T07:16:28.902Z,90.33
2018-12-29T07:18:59.768Z,90.24
2018-12-29T07:21:30.466Z,90.27
2018-12-29T07:24:01.570Z,90.40
2018-12-29T07:26:32.313Z,90.44
2018-12-29T07:29:04.160Z,90.40
2018-12-29T07:31:34.921Z,90.40
2018-12-29T07:34:05.774Z,90.38
2018-12-29T07:36:36.492Z,90.32
2018-12-29T07:39:08.541Z,90.20
2018-12-29T07:41:39.264Z,90.07
2018-12-29T07:44:10.010Z,90.12
2018-12-29T07:46:40.773Z,90.14
2018-12-29T07:49:11.574Z,90.21
2018-12-29T07:51:42.371Z,90.09
2018-12-29T07:54:13.104Z,89.93
2018-12-29T07:56:43.814Z,90.02
2018-12-29T07:59:14.578Z,90.02
2018-12-29T08:01:45.313Z,90.06
2018-12-29T08:04:16.071Z,90.11
2018-12-29T08:06:46.801Z,90.09
2018-12-29T08:09:17.686Z,90.21
2018-12-29T08:11:48.460Z,90.22
2018-12-29T08:14:19.180Z,90.28
2018-12-29T08:16:56.677Z,90.31
2018-12-29T08:19:22.360Z,90.36
2018-12-29T08:21:53.108Z,90.41
2018-12-29T08:24:23.916Z,90.40
2018-12-29T08:26:54.610Z,90.34
2018-12-29T08:29:25.507Z,90.29
2018-12-29T08:31:56.259Z,90.28
2018-12-29T08:34:27.061Z,90.27
2018-12-29T08:36:57.791Z,90.17
2018-12-29T08:39:28.549Z,90.17
2018-12-29T08:41:59.311Z,90.06
2018-12-29T08:44:30.163Z,90.11
2018-12-29T08:47:04.475Z,90.09
2018-12-29T08:49:33.363Z,90.10
2018-12-29T08:52:04.174Z,89.75
2018-12-29T08:54:35.003Z,89.60
2018-12-29T08:57:05.742Z,89.56
2018-12-29T08:59:36.489Z,89.34
2018-12-29T09:02:07.217Z,89.46
2018-12-29T09:04:37.986Z,89.59
2018-12-29T09:07:08.796Z,89.57
2018-12-29T09:09:39.618Z,89.57
2018-12-29T09:12:10.399Z,89.51
2018-12-29T09:14:41.321Z,89.49
2018-12-29T09:17:12.522Z,89.24
2018-12-29T09:19:43.394Z,89.30
2018-12-29T09:22:14.090Z,89.58
2018-12-29T09:24:44.844Z,89.71
2018-12-29T09:27:15.553Z,89.66
2018-12-29T09:29:46.378Z,89.12
2018-12-29T09:32:17.157Z,89.01
2018-12-29T09:34:47.987Z,88.97
2018-12-29T09:37:18.868Z,88.79
2018-12-29T09:39:49.638Z,88.52
2018-12-29T09:42:20.373Z,88.59
2018-12-29T09:44:51.153Z,88.64
2018-12-29T09:47:22.033Z,88.02
2018-12-29T09:49:52.787Z,87.89
2018-12-29T09:52:23.510Z,87.94
2018-12-29T09:54:54.307Z,88.02
2018-12-29T09:57:25.093Z,87.89
2018-12-29T09:59:55.896Z,87.57
2018-12-29T10:02:26.679Z,87.43
2018-12-29T10:04:57.610Z,87.75
2018-12-29T10:07:28.347Z,87.39
2018-12-29T10:09:59.105Z,87.36
2018-12-29T10:12:29.838Z,87.02
2018-12-29T10:15:00.664Z,86.72
2018-12-29T10:17:31.386Z,86.71
2018-12-29T10:20:02.176Z,86.98
2018-12-29T10:22:32.932Z,86.89
2018-12-29T10:25:03.819Z,86.54
2018-12-29T10:27:34.531Z,86.27
2018-12-29T10:30:05.633Z,86.25
2018-12-29T10:32:36.404Z,86.62
2018-12-29T10:35:07.175Z,86.40
2018-12-29T10:37:37.915Z,85.99
2018-12-29T10:40:08.836Z,86.09
2018-12-29T10:42:39.611Z,85.67
2018-12-29T10:45:10.354Z,85.68
2018-12-29T10:47:41.094Z,85.76
2018-12-29T10:50:11.908Z,85.82
2018-12-29T10:52:42.643Z,85.90
2018-12-29T10:55:13.665Z,85.95
2018-12-29T10:57:44.424Z,86.09
2018-12-29T11:00:15.203Z,86.03
2018-12-29T11:02:46.100Z,85.94
2018-12-29T11:05:17.020Z,85.62
2018-12-29T11:07:47.727Z,85.31
2018-12-29T11:10:18.574Z,85.55
2018-12-29T11:12:49.372Z,85.26
2018-12-29T11:15:20.192Z,84.99
2018-12-29T11:17:50.915Z,84.60
2018-12-29T11:20:21.748Z,85.33
2018-12-29T11:22:52.629Z,84.47
2018-12-29T11:25:23.364Z,84.10
2018-12-29T11:27:54.174Z,83.93
2018-12-29T11:30:24.914Z,83.83
2018-12-29T11:32:55.793Z,84.11
2018-12-29T11:35:29.008Z,83.65
2018-12-29T11:37:59.011Z,83.88
2018-12-29T11:40:29.815Z,84.11
2018-12-29T11:43:00.635Z,84.39
2018-12-29T11:45:31.356Z,84.85
2018-12-29T11:48:02.126Z,83.42
2018-12-29T11:50:32.878Z,82.54
2018-12-29T11:53:03.721Z,82.77
2018-12-29T11:55:34.999Z,83.07
2018-12-29T11:58:05.806Z,83.29
2018-12-29T12:00:36.570Z,82.98
2018-12-29T12:03:07.356Z,82.85
2018-12-29T12:05:38.090Z,82.74
2018-12-29T12:08:09.272Z,82.58
2018-12-29T12:10:40.008Z,82.85
2018-12-29T12:13:10.887Z,82.74
2018-12-29T12:15:41.687Z,82.71
2018-12-29T12:18:12.500Z,82.97
2018-12-29T12:20:43.334Z,82.92
2018-12-29T12:23:14.119Z,82.92
2018-12-29T12:25:44.844Z,82.83
2018-12-29T12:28:15.809Z,82.78
2018-12-29T12:30:46.597Z,82.51
2018-12-29T12:33:17.643Z,82.14
2018-12-29T12:35:48.512Z,82.06
2018-12-29T12:38:19.592Z,82.41
2018-12-29T12:40:50.509Z,82.52
2018-12-29T12:43:21.710Z,82.42
2018-12-29T12:45:52.709Z,82.37
2018-12-29T12:48:23.503Z,82.20
2018-12-29T12:50:54.515Z,82.32
2018-12-29T12:53:25.302Z,82.58
2018-12-29T12:55:56.023Z,82.70
2018-12-29T12:58:27.027Z,82.85
2018-12-29T13:00:58.027Z,82.68
2018-12-29T13:03:29.166Z,82.84
2018-12-29T13:05:59.885Z,82.88
2018-12-29T13:08:30.671Z,82.93
2018-12-29T13:11:01.423Z,82.97
2018-12-29T13:13:32.315Z,82.83
2018-12-29T13:16:03.086Z,82.92
2018-12-29T13:18:33.877Z,82.93
2018-12-29T13:21:04.839Z,82.81
2018-12-29T13:23:35.609Z,82.40
2018-12-29T13:26:06.863Z,82.32
2018-12-29T13:28:37.634Z,82.30
2018-12-29T13:31:08.435Z,82.41
2018-12-29T13:33:40.269Z,82.66
2018-12-29T13:36:11.040Z,82.40
2018-12-29T13:38:41.829Z,82.48
2018-12-29T13:41:12.614Z,82.68
2018-12-29T13:43:43.481Z,82.93
2018-12-29T13:46:14.296Z,82.80
2018-12-29T13:48:45.140Z,82.67
2018-12-29T13:51:15.912Z,82.76
2018-12-29T13:53:46.754Z,82.92
2018-12-29T13:56:17.488Z,82.91
2018-12-29T13:58:48.283Z,82.96
2018-12-29T14:01:19.060Z,82.81
2018-12-29T14:03:49.816Z,83.07
2018-12-29T14:06:20.555Z,83.23
2018-12-29T14:08:51.620Z,83.52
2018-12-29T14:11:22.371Z,83.82
2018-12-29T14:13:53.185Z,84.01
2018-12-29T14:16:24.031Z,84.29
2018-12-29T14:18:55.072Z,84.26
2018-12-29T14:21:25.826Z,84.71
2018-12-29T14:23:56.655Z,84.55
2018-12-29T14:26:27.445Z,84.46
2018-12-29T14:28:58.376Z,84.71
2018-12-29T14:31:29.166Z,84.70
2018-12-29T14:33:59.960Z,84.68
2018-12-29T14:36:30.965Z,85.00
2018-12-29T14:39:01.737Z,85.05
2018-12-29T14:41:32.517Z,85.54
2018-12-29T14:44:03.419Z,85.67
2018-12-29T14:46:34.228Z,86.11
2018-12-29T14:49:05.054Z,86.63
2018-12-29T14:51:35.870Z,86.55
2018-12-29T14:54:07.102Z,86.78
2018-12-29T14:56:37.870Z,86.79
2018-12-29T14:59:08.602Z,86.88
2018-12-29T15:01:39.671Z,86.93
2018-12-29T15:04:10.642Z,86.79
2018-12-29T15:06:41.442Z,86.85
2018-12-29T15:09:12.206Z,86.88
2018-12-29T15:11:42.970Z,87.02
2018-12-29T15:14:13.794Z,87.01
2018-12-29T15:16:44.825Z,87.13
2018-12-29T15:19:15.590Z,87.15
2018-12-29T15:21:46.444Z,87.38
2018-12-29T15:24:17.250Z,87.50
2018-12-29T15:26:48.000Z,87.66
2018-12-29T15:29:19.055Z,87.84
2018-12-29T15:31:49.788Z,88.25
2018-12-29T15:34:20.572Z,88.55
2018-12-29T15:36:51.307Z,88.88
2018-12-29T15:39:22.382Z,89.13
2018-12-29T15:41:53.166Z,89.61
2018-12-29T15:44:24.053Z,89.77
2018-12-29T15:46:55.161Z,90.23
2018-12-29T15:49:26.006Z,90.23
2018-12-29T15:51:56.720Z,90.22
2018-12-29T15:54:27.488Z,90.65
2018-12-29T15:56:58.212Z,90.76
2018-12-29T15:59:29.323Z,90.73
2018-12-29T16:02:00.089Z,90.54
2018-12-29T16:04:30.831Z,90.62
2018-12-29T16:07:01.714Z,90.71
2018-12-29T16:09:32.904Z,90.84
2018-12-29T16:12:03.721Z,91.23
2018-12-29T16:14:35.503Z,91.74
2018-12-29T16:17:06.438Z,91.72
2018-12-29T16:19:37.297Z,91.74
2018-12-29T16:22:08.037Z,91.86
2018-12-29T16:24:38.791Z,91.83
2018-12-29T16:27:09.829Z,91.89
2018-12-29T16:29:40.581Z,91.81
2018-12-29T16:32:11.284Z,92.16
2018-12-29T16:34:42.068Z,92.16
2018-12-29T16:37:12.888Z,91.91
2018-12-29T16:39:43.923Z,91.96
2018-12-29T16:42:14.789Z,92.14
2018-12-29T16:44:45.586Z,92.15
2018-12-29T16:47:16.362Z,92.16
2018-12-29T16:49:47.267Z,92.30
2018-12-29T16:52:18.360Z,92.19
2018-12-29T16:54:49.172Z,92.17
2018-12-29T16:57:20.024Z,92.11
2018-12-29T16:59:50.820Z,92.18
2018-12-29T17:02:21.931Z,92.50
2018-12-29T17:04:52.685Z,92.32
2018-12-29T17:07:23.459Z,93.52
2018-12-29T17:09:54.321Z,93.30
2018-12-29T17:12:25.169Z,92.73
2018-12-29T17:14:55.963Z,90.83
2018-12-29T17:17:26.738Z,89.57
2018-12-29T17:19:57.681Z,89.19
2018-12-29T17:22:28.502Z,88.61
2018-12-29T17:24:59.277Z,87.82
2018-12-29T17:27:30.037Z,87.22
2018-12-29T17:30:01.267Z,86.88
2018-12-29T17:32:32.174Z,85.89
2018-12-29T17:35:02.952Z,86.52
2018-12-29T17:37:34.441Z,87.56
2018-12-29T17:40:05.620Z,88.23
2018-12-29T17:42:36.385Z,88.56
2018-12-29T17:45:07.677Z,89.12
2018-12-29T17:47:38.496Z,89.65
2018-12-29T17:50:09.359Z,89.66
2018-12-29T17:52:40.291Z,89.50
2018-12-29T17:55:11.396Z,89.75
2018-12-29T17:57:42.366Z,89.94
2018-12-29T18:00:13.163Z,90.33
2018-12-29T18:02:43.974Z,90.74
2018-12-29T18:05:14.809Z,90.46
2018-12-29T18:07:45.589Z,90.27
2018-12-29T18:10:16.421Z,90.44
2018-12-29T18:12:47.237Z,90.66
2018-12-29T18:15:18.031Z,90.74
2018-12-29T18:17:48.967Z,90.49
2018-12-29T18:20:19.907Z,90.63
2018-12-29T18:22:50.665Z,90.90
2018-12-29T18:25:21.409Z,90.90
2018-12-29T18:27:52.359Z,90.98
2018-12-29T18:30:23.215Z,91.08
2018-12-29T18:32:53.981Z,91.15
2018-12-29T18:35:24.861Z,91.07
2018-12-29T18:37:55.789Z,91.08
2018-12-29T18:40:26.697Z,91.20
2018-12-29T18:42:57.501Z,91.16
2018-12-29T18:45:28.585Z,91.28
2018-12-29T18:47:59.452Z,91.43
2018-12-29T18:50:30.187Z,91.50
2018-12-29T18:53:01.098Z,91.38
2018-12-29T18:55:32.071Z,91.37
2018-12-29T18:58:03.318Z,91.64
2018-12-29T19:00:34.104Z,91.46
2018-12-29T19:03:04.907Z,91.53
2018-12-29T19:05:35.637Z,91.53
2018-12-29T19:08:06.567Z,91.55
2018-12-29T19:10:37.357Z,91.72
2018-12-29T19:13:08.490Z,91.54
2018-12-29T19:15:39.638Z,91.62
2018-12-29T19:18:10.451Z,91.59
2018-12-29T19:20:41.224Z,91.55
2018-12-29T19:23:12.456Z,91.63
2018-12-29T19:25:43.177Z,91.63
2018-12-29T19:28:14.272Z,91.41
2018-12-29T19:30:45.087Z,91.32
2018-12-29T19:33:16.133Z,91.61
2018-12-29T19:35:47.139Z,91.61
2018-12-29T19:38:18.215Z,91.79
2018-12-29T19:40:51.030Z,91.79
2018-12-29T19:43:21.906Z,91.76
2018-12-29T19:45:52.777Z,91.88
2018-12-29T19:48:25.099Z,91.81
2018-12-29T19:50:56.204Z,91.72
2018-12-29T19:53:27.330Z,91.81
2018-12-29T19:55:58.183Z,91.90
2018-12-29T19:58:28.988Z,91.68
2018-12-29T20:00:59.851Z,91.57
2018-12-29T20:03:30.688Z,91.47
2018-12-29T20:06:01.434Z,91.27
2018-12-29T20:08:32.646Z,91.60
2018-12-29T20:11:03.558Z,91.41
2018-12-29T20:13:34.406Z,91.56
2018-12-29T20:16:05.799Z,91.40
2018-12-29T20:18:36.735Z,91.46
2018-12-29T20:21:07.476Z,91.32
2018-12-29T20:23:38.294Z,91.02
2018-12-29T20:26:09.071Z,90.71
2018-12-29T20:28:39.893Z,90.55
2018-12-29T20:31:10.967Z,90.67
2018-12-29T20:33:41.769Z,90.56
2018-12-29T20:36:12.501Z,90.43
2018-12-29T20:38:43.292Z,90.40
2018-12-29T20:41:14.020Z,90.18
2018-12-29T20:43:44.946Z,90.08
2018-12-29T20:46:15.842Z,89.91
2018-12-29T20:48:46.609Z,89.88
2018-12-29T20:51:17.528Z,90.22
2018-12-29T20:53:48.716Z,90.17
2018-12-29T20:56:19.516Z,90.35
2018-12-29T20:58:50.323Z,90.09
2018-12-29T21:01:21.106Z,89.77
2018-12-29T21:03:51.896Z,89.36
2018-12-29T21:06:22.965Z,88.94
2018-12-29T21:08:53.724Z,88.86
2018-12-29T21:11:24.544Z,88.37
2018-12-29T21:13:55.402Z,87.88
2018-12-29T21:16:26.183Z,87.29
2018-12-29T21:18:57.059Z,86.47
2018-12-29T21:21:27.831Z,87.12
2018-12-29T21:23:58.606Z,85.64
2018-12-29T21:26:29.382Z,84.94
2018-12-29T21:29:00.355Z,85.05
2018-12-29T21:31:31.112Z,84.00
2018-12-29T21:34:01.919Z,83.79
2018-12-29T21:36:32.776Z,83.80
2018-12-29T21:39:04.486Z,82.43
2018-12-29T21:41:35.654Z,82.47
2018-12-29T21:44:06.483Z,82.57
2018-12-29T21:46:37.278Z,82.97
2018-12-29T21:49:08.077Z,83.25
2018-12-29T21:51:38.878Z,83.19
2018-12-29T21:54:09.664Z,83.95
2018-12-29T21:56:40.523Z,84.15
2018-12-29T21:59:11.395Z,84.81
2018-12-29T22:01:42.173Z,84.16
2018-12-29T22:04:12.964Z,83.41
2018-12-29T22:06:43.823Z,83.71
2018-12-29T22:09:14.627Z,83.24
2018-12-29T22:11:45.360Z,82.59
2018-12-29T22:14:16.118Z,81.79
2018-12-29T22:16:47.161Z,82.13
2018-12-29T22:19:17.910Z,81.18
2018-12-29T22:21:48.690Z,79.82
2018-12-29T22:24:19.474Z,77.96
2018-12-29T22:26:50.247Z,78.71
2018-12-29T22:29:21.209Z,78.01
2018-12-29T22:31:52.038Z,77.26
2018-12-29T22:34:22.830Z,76.82
2018-12-29T22:36:53.559Z,77.21
2018-12-29T22:39:24.362Z,77.36
2018-12-29T22:41:55.170Z,75.74
2018-12-29T22:44:25.956Z,75.72
2018-12-29T22:46:56.701Z,75.69
2018-12-29T22:49:27.502Z,75.07
2018-12-29T22:51:58.563Z,75.35
2018-12-29T22:54:29.389Z,76.07
2018-12-29T22:57:00.210Z,76.41
2018-12-29T22:59:30.974Z,75.42
2018-12-29T23:02:01.733Z,75.54
2018-12-29T23:04:32.503Z,75.78
2018-12-29T23:07:03.480Z,75.73
2018-12-29T23:09:34.310Z,75.74
2018-12-29T23:12:06.453Z,75.58
2018-12-29T23:14:37.340Z,75.79
2018-12-29T23:17:08.399Z,75.74
2018-12-29T23:19:39.149Z,74.89
2018-12-29T23:22:09.921Z,74.69
2018-12-29T23:24:40.838Z,75.14
2018-12-29T23:27:11.574Z,75.72
2018-12-29T23:29:42.416Z,76.05
2018-12-29T23:32:13.217Z,76.14
2018-12-29T23:34:43.991Z,75.96
2018-12-29T23:37:14.894Z,76.21
2018-12-29T23:39:45.705Z,76.40
2018-12-29T23:42:16.547Z,76.79
2018-12-29T23:44:47.291Z,76.59
2018-12-29T23:47:18.140Z,76.85
2018-12-29T23:49:49.023Z,76.80
2018-12-29T23:52:20.110Z,77.13
2018-12-29T23:54:51.124Z,77.29
2018-12-29T23:57:22.217Z,77.47
2018-12-29T23:59:53.361Z,77.17
